Terminal Aerodrome Forecast
Issued by NWS Newport/Morehead City, NC

Home | Current Version | Previous Version | Text Only | Print | Product List | Glossary Off
Versions: 1 2 3 4 5 6 7 8 9 10 11 12 13 14 15 16 17 18 19 20 21 22 23 24 25 26

000
FTUS42 KMHX 300530
TAFEWN
TAF
KEWN 300530Z 3006/0106 VRB03KT P6SM SCT020
     FM300830 VRB04KT 3SM BR BKN005
     FM301400 05006KT P6SM BKN020
     FM301600 08008KT P6SM SCT025 BKN035
     FM010500 VRB04KT P6SM BKN030=

USA.gov is the U.S. government's official web portal to all federal, state and local government web resources and services.